Portada
METAR-TAF:

METAR-TAF

Aeropuertos :

El Dorado, Kansas, Estados Unidos

latitud: 37-46-27N, longitud: 096-49-03W, altitud: 420 m

Observación

El informe se hizo hace 18 minutos, a las 05:55 UTC
Viento 8 kt del sur
Temperatura 26°C
Humedad 79%
Presión 1013 hPa
Visibilidad: 16.1 km
Cielo despejado

METAR: KEQA 070555Z AUTO 17008KT 10SM CLR 26/22 A2990 RMK AO2

Hora: 01:13 (06:13 UTC)


TAF: falta

Observaciones y pronósticos meteorológicos de más de 4000 aeropuertos (mensajes METAR y TAF).

Los puntos amarillos y rojos representan las estaciones disponibles.

Ponga el ratón en el punto deseado para ver el nombre de la estación.

Haga clic para ver las observaciones y los pronósticos meteorológicos.

Para cambiar el mapa : haga clic en los botones verdes con una cruz de color negro para hacer un zoom, en el botón verde con un guión para alejar o en las flechas verdes para mapas adyacentes.


METAR-TAF: